createdAt,value
2018-03-18T00:02:21.616Z,48.70
2018-03-18T00:04:49.945Z,49.00
2018-03-18T00:07:17.546Z,49.10
2018-03-18T00:09:45.184Z,49.10
2018-03-18T00:12:13.658Z,49.10
2018-03-18T00:14:41.178Z,48.80
2018-03-18T00:17:08.682Z,48.80
2018-03-18T00:19:36.290Z,48.80
2018-03-18T00:22:03.865Z,48.70
2018-03-18T00:24:31.394Z,49.10
2018-03-18T00:26:58.962Z,48.40
2018-03-18T00:29:26.424Z,48.90
2018-03-18T00:31:53.889Z,48.30
2018-03-18T00:34:21.374Z,48.60
2018-03-18T00:36:48.841Z,48.80
2018-03-18T00:39:16.307Z,48.80
2018-03-18T00:41:43.779Z,48.70
2018-03-18T00:44:12.007Z,48.50
2018-03-18T00:46:40.078Z,48.50
2018-03-18T00:49:07.544Z,48.20
2018-03-18T00:51:47.029Z,48.20
2018-03-18T00:54:21.627Z,48.40
2018-03-18T00:56:49.108Z,48.40
2018-03-18T00:59:16.566Z,48.30
2018-03-18T01:01:44.819Z,48.90
2018-03-18T01:04:12.266Z,48.80
2018-03-18T01:06:40.100Z,49.10
2018-03-18T01:09:07.575Z,49.10
2018-03-18T01:11:37.326Z,49.00
2018-03-18T01:14:04.828Z,49.00
2018-03-18T01:16:32.260Z,49.10
2018-03-18T01:19:00.494Z,48.80
2018-03-18T01:21:27.960Z,48.80
2018-03-18T01:23:55.445Z,48.60
2018-03-18T01:26:23.669Z,48.40
2018-03-18T01:28:51.138Z,48.30
2018-03-18T01:31:18.614Z,48.60
2018-03-18T01:33:46.086Z,48.30
2018-03-18T01:36:13.545Z,48.40
2018-03-18T01:38:41.025Z,48.50
2018-03-18T01:41:09.265Z,48.70
2018-03-18T01:43:36.733Z,48.70
2018-03-18T01:46:04.198Z,48.30
2018-03-18T01:48:31.673Z,48.20
2018-03-18T01:50:59.901Z,48.50
2018-03-18T01:53:27.379Z,48.50
2018-03-18T01:55:54.833Z,48.50
2018-03-18T01:58:22.305Z,48.30
2018-03-18T02:00:49.770Z,48.30
2018-03-18T02:03:18.013Z,48.10
2018-03-18T02:05:45.477Z,48.00
2018-03-18T02:08:12.954Z,47.80
2018-03-18T02:10:40.411Z,47.70
2018-03-18T02:13:07.890Z,47.60
2018-03-18T02:15:37.114Z,47.90
2018-03-18T02:18:04.597Z,47.80
2018-03-18T02:20:32.051Z,47.90
2018-03-18T02:22:59.515Z,47.70
2018-03-18T02:25:26.992Z,47.60
2018-03-18T02:27:54.469Z,47.40
2018-03-18T02:30:22.725Z,47.50
2018-03-18T02:32:50.177Z,47.50
2018-03-18T02:35:17.638Z,48.40
2018-03-18T02:37:45.094Z,48.00
2018-03-18T02:40:13.481Z,48.20
2018-03-18T02:42:40.942Z,48.40
2018-03-18T02:45:08.405Z,48.20
2018-03-18T02:47:36.682Z,48.00
2018-03-18T02:50:04.143Z,48.20
2018-03-18T02:52:31.596Z,48.70
2018-03-18T02:54:59.062Z,48.20
2018-03-18T02:57:27.290Z,48.30
2018-03-18T02:59:54.780Z,48.30
2018-03-18T03:02:22.228Z,48.40
2018-03-18T03:04:49.704Z,48.40
2018-03-18T03:07:17.156Z,48.70
2018-03-18T03:09:44.625Z,48.40
2018-03-18T03:12:12.855Z,48.50
2018-03-18T03:14:40.325Z,48.50
2018-03-18T03:17:07.788Z,48.20
2018-03-18T03:19:35.254Z,48.30
2018-03-18T03:22:02.712Z,48.30
2018-03-18T03:24:30.534Z,48.00
2018-03-18T03:26:57.996Z,47.90
2018-03-18T03:29:26.241Z,48.20
2018-03-18T03:31:54.457Z,48.20
2018-03-18T03:34:21.921Z,48.20
2018-03-18T03:36:49.394Z,48.10
2018-03-18T03:39:16.854Z,48.40
2018-03-18T03:41:44.319Z,48.10
2018-03-18T03:44:11.783Z,48.30
2018-03-18T03:46:39.252Z,48.00
2018-03-18T03:49:07.474Z,48.50
2018-03-18T03:51:34.954Z,48.60
2018-03-18T03:54:06.479Z,48.60
2018-03-18T03:56:34.062Z,48.30
2018-03-18T03:59:01.608Z,48.60
2018-03-18T04:01:29.188Z,48.10
2018-03-18T04:03:57.965Z,48.10
2018-03-18T04:06:25.503Z,48.10
2018-03-18T04:08:53.049Z,48.10
2018-03-18T04:11:20.902Z,48.40
2018-03-18T04:13:48.410Z,49.00
2018-03-18T04:16:15.948Z,48.30
2018-03-18T04:18:43.418Z,48.50
2018-03-18T04:21:11.000Z,48.50
2018-03-18T04:23:38.568Z,48.60
2018-03-18T04:26:06.125Z,48.60
2018-03-18T04:28:33.680Z,48.30
2018-03-18T04:31:01.609Z,48.20
2018-03-18T04:33:29.130Z,48.20
2018-03-18T04:35:56.650Z,48.40
2018-03-18T04:38:24.226Z,48.00
2018-03-18T04:40:51.807Z,48.50
2018-03-18T04:43:19.379Z,48.30
2018-03-18T04:45:46.950Z,48.10
2018-03-18T04:48:14.521Z,48.40
2018-03-18T04:50:42.103Z,48.30
2018-03-18T04:53:10.436Z,48.50
2018-03-18T04:55:37.948Z,48.50
2018-03-18T04:58:06.274Z,48.40
2018-03-18T05:00:33.770Z,48.40
2018-03-18T05:03:01.326Z,48.70
2018-03-18T05:05:28.866Z,48.40
2018-03-18T05:07:56.459Z,48.40
2018-03-18T05:10:24.005Z,48.50
2018-03-18T05:12:51.599Z,48.50
2018-03-18T05:15:19.783Z,48.50
2018-03-18T05:17:47.250Z,48.50
2018-03-18T05:20:14.700Z,48.40
2018-03-18T05:22:42.948Z,48.20
2018-03-18T05:25:10.410Z,48.00
2018-03-18T05:27:37.888Z,48.10
2018-03-18T05:30:05.350Z,47.80
2018-03-18T05:32:32.824Z,48.40
2018-03-18T05:35:00.272Z,48.50
2018-03-18T05:37:27.740Z,48.20
2018-03-18T05:39:55.197Z,47.80
2018-03-18T05:42:22.664Z,47.90
2018-03-18T05:44:50.117Z,47.70
2018-03-18T05:47:17.579Z,47.80
2018-03-18T05:49:45.043Z,47.70
2018-03-18T05:52:13.316Z,47.80
2018-03-18T05:54:40.791Z,47.70
2018-03-18T05:57:09.010Z,47.40
2018-03-18T05:59:36.482Z,47.40
2018-03-18T06:02:03.940Z,47.50
2018-03-18T06:04:31.403Z,47.50
2018-03-18T06:06:59.636Z,47.60
2018-03-18T06:09:27.517Z,47.40
2018-03-18T06:11:54.973Z,47.20
2018-03-18T06:14:22.447Z,47.10
2018-03-18T06:16:49.913Z,47.10
2018-03-18T06:19:17.382Z,47.00
2018-03-18T06:21:44.845Z,46.80
2018-03-18T06:24:12.312Z,47.00
2018-03-18T06:26:39.812Z,47.10
2018-03-18T06:29:07.331Z,47.10
2018-03-18T06:31:34.793Z,47.40
2018-03-18T06:34:03.025Z,46.80
2018-03-18T06:36:30.507Z,46.70
2018-03-18T06:38:57.985Z,46.60
2018-03-18T06:41:26.209Z,46.70
2018-03-18T06:47:00.194Z,46.30
2018-03-18T06:49:28.431Z,46.40
2018-03-18T06:51:55.888Z,46.30
2018-03-18T06:54:23.344Z,46.10
2018-03-18T06:56:50.828Z,46.10
2018-03-18T06:59:18.293Z,45.80
2018-03-18T07:01:45.751Z,46.00
2018-03-18T07:04:13.227Z,45.70
2018-03-18T07:06:41.452Z,45.20
2018-03-18T07:09:08.917Z,45.10
2018-03-18T07:11:36.381Z,45.00
2018-03-18T07:14:03.852Z,45.20
2018-03-18T07:16:31.327Z,44.90
2018-03-18T07:18:58.783Z,44.80
2018-03-18T07:21:27.022Z,45.10
2018-03-18T07:23:54.492Z,45.10
2018-03-18T07:26:21.966Z,45.00
2018-03-18T07:28:49.429Z,44.20
2018-03-18T07:31:16.935Z,44.00
2018-03-18T07:33:44.390Z,44.30
2018-03-18T07:36:11.855Z,43.80
2018-03-18T07:38:39.344Z,43.90
2018-03-18T07:41:06.792Z,43.30
2018-03-18T07:43:34.244Z,43.30
2018-03-18T07:46:02.630Z,43.50
2018-03-18T07:48:31.991Z,43.40
2018-03-18T07:50:59.466Z,43.20
2018-03-18T07:53:26.992Z,42.60
2018-03-18T07:55:55.920Z,42.20
2018-03-18T07:58:23.996Z,42.20
2018-03-18T08:00:55.504Z,41.50
2018-03-18T08:03:23.089Z,41.60
2018-03-18T08:05:50.559Z,41.70
2018-03-18T08:08:28.038Z,41.60
2018-03-18T08:13:53.567Z,40.90
2018-03-18T08:16:41.702Z,40.90
2018-03-18T08:19:10.616Z,41.00
2018-03-18T08:21:39.068Z,40.60
2018-03-18T08:24:10.924Z,40.90
2018-03-18T08:29:51.246Z,40.60
2018-03-18T08:35:13.874Z,40.30
2018-03-18T08:40:44.935Z,39.10
2018-03-18T08:43:12.480Z,38.10
2018-03-18T08:45:41.247Z,39.00
2018-03-18T09:13:13.956Z,36.70
2018-03-18T09:29:59.676Z,34.10
2018-03-18T09:32:28.166Z,34.10
2018-03-18T09:40:30.624Z,34.20
2018-03-18T09:42:58.255Z,34.10
2018-03-18T09:45:25.724Z,33.50
2018-03-18T09:47:53.250Z,33.30
2018-03-18T09:53:28.701Z,33.80
2018-03-18T09:55:56.168Z,33.40
2018-03-18T09:58:30.673Z,33.70
2018-03-18T10:04:02.519Z,33.10
2018-03-18T10:06:40.513Z,32.10
2018-03-18T10:09:08.264Z,32.10
2018-03-18T10:11:35.729Z,31.90
2018-03-18T10:14:15.675Z,31.40
2018-03-18T10:16:43.151Z,31.80
2018-03-18T10:19:11.391Z,32.50
2018-03-18T10:21:44.925Z,32.50
2018-03-18T10:24:19.014Z,33.60
2018-03-18T10:26:46.483Z,33.60
2018-03-18T10:29:13.963Z,32.80
2018-03-18T10:31:42.190Z,32.40
2018-03-18T10:34:11.557Z,32.40
2018-03-18T10:36:45.456Z,32.80
2018-03-18T10:39:22.007Z,32.60
2018-03-18T10:41:49.531Z,32.70
2018-03-18T10:44:17.265Z,31.50
2018-03-18T10:46:44.754Z,31.70
2018-03-18T10:49:12.295Z,32.00
2018-03-18T10:51:39.704Z,31.60
2018-03-18T10:54:07.170Z,32.10
2018-03-18T10:56:36.106Z,31.50
2018-03-18T10:59:09.391Z,31.50
2018-03-18T11:01:42.541Z,31.80
2018-03-18T11:04:10.918Z,32.00
2018-03-18T11:06:38.365Z,32.00
2018-03-18T11:09:05.826Z,31.20
2018-03-18T11:11:33.286Z,32.10
2018-03-18T11:14:00.785Z,31.10
2018-03-18T11:16:28.246Z,31.50
2018-03-18T11:18:55.714Z,31.60
2018-03-18T11:21:23.172Z,32.30
2018-03-18T11:23:50.675Z,31.50
2018-03-18T11:26:18.148Z,32.80
2018-03-18T11:28:45.633Z,31.10
2018-03-18T11:31:13.097Z,30.40
2018-03-18T11:33:40.556Z,30.90
2018-03-18T11:36:08.021Z,31.80
2018-03-18T11:38:35.537Z,32.50
2018-03-18T11:41:02.967Z,31.10
2018-03-18T11:43:30.450Z,30.20
2018-03-18T11:45:57.909Z,31.30
2018-03-18T11:48:26.139Z,32.50
2018-03-18T11:50:53.613Z,31.80
2018-03-18T11:53:21.065Z,31.90
2018-03-18T11:55:48.899Z,31.10
2018-03-18T11:58:17.140Z,30.50
2018-03-18T12:00:44.608Z,30.50
2018-03-18T12:03:12.825Z,32.00
2018-03-18T12:05:40.807Z,32.00
2018-03-18T12:08:08.266Z,32.10
2018-03-18T12:10:35.726Z,31.40
2018-03-18T12:13:03.178Z,32.30
2018-03-18T12:15:30.674Z,31.70
2018-03-18T12:17:58.136Z,31.10
2018-03-18T12:20:25.702Z,31.20
2018-03-18T12:22:53.153Z,30.70
2018-03-18T12:25:21.398Z,30.40
2018-03-18T12:27:49.650Z,30.20
2018-03-18T12:30:17.120Z,30.30
2018-03-18T12:32:44.672Z,30.10
2018-03-18T12:35:12.895Z,31.80
2018-03-18T12:37:40.358Z,31.70
2018-03-18T13:04:50.353Z,31.20
2018-03-18T13:07:17.836Z,31.20
2018-03-18T13:09:45.294Z,30.90
2018-03-18T13:12:12.758Z,31.10
2018-03-18T13:14:40.996Z,31.10
2018-03-18T13:17:08.461Z,31.10
2018-03-18T13:19:35.925Z,32.50
2018-03-18T13:22:04.513Z,31.90
2018-03-18T13:24:31.990Z,33.00
2018-03-18T13:27:02.177Z,33.00
2018-03-18T13:29:29.666Z,33.00
2018-03-18T13:31:57.910Z,32.00
2018-03-18T13:34:25.369Z,31.30
2018-03-18T13:36:52.912Z,32.50
2018-03-18T13:39:20.290Z,32.70
2018-03-18T13:41:57.106Z,33.10
2018-03-18T13:44:24.906Z,33.70
2018-03-18T13:47:03.820Z,33.40
2018-03-18T13:49:35.697Z,34.20
2018-03-18T13:52:03.272Z,33.70
2018-03-18T13:54:40.825Z,32.70
2018-03-18T13:57:08.355Z,33.90
2018-03-18T13:59:35.880Z,33.80
2018-03-18T14:02:03.385Z,33.00
2018-03-18T14:04:41.514Z,32.80
2018-03-18T14:07:11.018Z,32.90
2018-03-18T14:09:38.506Z,32.20
2018-03-18T14:12:06.583Z,33.60
2018-03-18T14:14:53.650Z,34.90
2018-03-18T14:17:33.087Z,36.70
2018-03-18T14:20:05.095Z,36.70
2018-03-18T14:22:32.567Z,36.50
2018-03-18T14:25:00.092Z,36.70
2018-03-18T14:27:32.434Z,35.50
2018-03-18T14:32:33.015Z,37.30
2018-03-18T14:35:00.483Z,37.10
2018-03-18T14:37:27.985Z,37.50
2018-03-18T14:39:55.527Z,36.90
2018-03-18T14:42:23.028Z,36.60
2018-03-18T14:44:50.592Z,37.40
2018-03-18T14:47:18.874Z,37.30
2018-03-18T14:49:47.165Z,37.90
2018-03-18T14:52:15.902Z,37.80
2018-03-18T14:54:43.383Z,37.70
2018-03-18T14:57:10.909Z,38.00
2018-03-18T14:59:38.892Z,38.40
2018-03-18T15:02:06.354Z,38.70
2018-03-18T15:04:34.515Z,39.20
2018-03-18T15:07:01.990Z,38.70
2018-03-18T15:09:35.544Z,39.60
2018-03-18T15:12:02.987Z,39.60
2018-03-18T15:14:30.468Z,40.00
2018-03-18T15:16:57.935Z,40.40
2018-03-18T15:19:25.418Z,41.10
2018-03-18T15:21:52.865Z,41.20
2018-03-18T15:24:20.363Z,40.00
2018-03-18T15:26:48.605Z,41.70
2018-03-18T15:29:16.082Z,41.60
2018-03-18T15:31:44.336Z,41.40
2018-03-18T15:34:11.804Z,41.40
2018-03-18T15:36:40.045Z,41.20
2018-03-18T15:39:07.523Z,40.90
2018-03-18T15:41:34.993Z,41.30
2018-03-18T15:44:02.468Z,41.60
2018-03-18T15:46:29.924Z,41.60
2018-03-18T15:48:57.381Z,41.50
2018-03-18T15:51:25.622Z,42.20
2018-03-18T15:53:53.087Z,42.20
2018-03-18T15:56:20.561Z,42.40
2018-03-18T15:58:48.028Z,42.80
2018-03-18T16:01:15.502Z,42.70
2018-03-18T16:03:43.745Z,42.00
2018-03-18T16:06:11.221Z,42.00
2018-03-18T16:08:38.676Z,42.30
2018-03-18T16:11:06.141Z,42.20
2018-03-18T16:13:33.603Z,41.70
2018-03-18T16:16:02.164Z,42.60
2018-03-18T16:18:29.626Z,42.50
2018-03-18T16:20:57.149Z,42.50
2018-03-18T16:23:24.615Z,42.60
2018-03-18T16:25:53.103Z,43.00
2018-03-18T16:28:20.581Z,43.30
2018-03-18T16:30:59.985Z,43.00
2018-03-18T16:33:27.463Z,43.30
2018-03-18T16:36:12.022Z,43.50
2018-03-18T16:38:39.488Z,43.20
2018-03-18T16:41:06.962Z,43.40
2018-03-18T16:43:35.203Z,43.70
2018-03-18T16:46:02.672Z,43.70
2018-03-18T16:48:30.130Z,43.50
2018-03-18T16:50:57.607Z,43.90
2018-03-18T16:56:21.055Z,44.10
2018-03-18T16:58:49.285Z,44.60
2018-03-18T17:01:17.524Z,45.10
2018-03-18T17:03:45.954Z,45.00
2018-03-18T17:06:13.467Z,45.50
2018-03-18T17:08:41.878Z,46.00
2018-03-18T17:11:10.125Z,46.50
2018-03-18T17:13:38.833Z,46.50
2018-03-18T17:16:06.320Z,46.70
2018-03-18T17:18:33.790Z,46.60
2018-03-18T17:21:02.098Z,47.30
2018-03-18T17:23:30.438Z,47.20
2018-03-18T17:25:57.888Z,47.30
2018-03-18T17:28:25.345Z,47.10
2018-03-18T17:30:52.797Z,47.50
2018-03-18T17:33:24.485Z,47.60
2018-03-18T17:35:51.946Z,47.60
2018-03-18T17:38:19.430Z,47.80
2018-03-18T17:40:47.826Z,47.60
2018-03-18T17:43:15.292Z,47.60
2018-03-18T17:45:55.349Z,47.90
2018-03-18T17:48:46.129Z,47.60
2018-03-18T17:51:25.353Z,47.50
2018-03-18T17:54:04.858Z,48.30
2018-03-18T17:56:35.895Z,48.50
2018-03-18T17:59:03.357Z,48.70
2018-03-18T18:01:30.807Z,48.70
2018-03-18T18:03:59.146Z,49.00
2018-03-18T18:06:26.612Z,49.00
2018-03-18T18:08:54.081Z,49.30
2018-03-18T18:11:22.315Z,49.40
2018-03-18T18:13:49.781Z,49.40
2018-03-18T18:16:17.375Z,49.70
2018-03-18T18:18:45.643Z,49.80
2018-03-18T18:21:15.674Z,49.80
2018-03-18T18:23:44.636Z,50.40
2018-03-18T18:26:12.107Z,50.40
2018-03-18T18:28:39.588Z,50.60
2018-03-18T18:31:07.583Z,50.70
2018-03-18T18:33:35.061Z,51.00
2018-03-18T18:36:02.523Z,51.20
2018-03-18T18:38:29.986Z,51.50
2018-03-18T18:40:57.456Z,51.90
2018-03-18T18:43:24.943Z,52.00
2018-03-18T18:45:53.162Z,53.30
2018-03-18T18:48:21.386Z,53.20
2018-03-18T18:50:49.662Z,53.60
2018-03-18T18:53:17.894Z,53.60
2018-03-18T18:55:45.381Z,53.60
2018-03-18T18:58:12.849Z,53.80
2018-03-18T19:00:40.364Z,53.70
2018-03-18T19:03:08.622Z,53.90
2018-03-18T19:05:36.099Z,53.90
2018-03-18T19:08:04.391Z,54.40
2018-03-18T19:10:31.945Z,54.40
2018-03-18T19:12:59.422Z,54.60
2018-03-18T19:15:26.897Z,54.70
2018-03-18T19:17:55.143Z,55.20
2018-03-18T19:20:22.617Z,55.10
2018-03-18T19:22:50.074Z,54.70
2018-03-18T19:25:17.571Z,55.00
2018-03-18T19:27:45.024Z,55.30
2018-03-18T19:30:13.275Z,55.80
2018-03-18T19:32:40.737Z,55.80
2018-03-18T19:35:08.214Z,56.20
2018-03-18T19:37:36.444Z,56.50
2018-03-18T19:40:03.942Z,56.50
2018-03-18T19:42:32.184Z,57.00
2018-03-18T19:44:59.719Z,57.00
2018-03-18T19:47:27.182Z,57.10
2018-03-18T19:49:54.657Z,57.10
2018-03-18T19:52:22.264Z,57.10
2018-03-18T19:54:50.504Z,57.40
2018-03-18T19:57:17.976Z,57.40
2018-03-18T19:59:45.443Z,57.40
2018-03-18T20:02:13.898Z,57.50
2018-03-18T20:04:41.363Z,57.60
2018-03-18T20:07:08.834Z,57.80
2018-03-18T20:09:37.076Z,57.70
2018-03-18T20:12:04.573Z,57.70
2018-03-18T20:14:32.086Z,57.60
2018-03-18T20:16:59.560Z,57.80
2018-03-18T20:19:27.029Z,57.90
2018-03-18T20:21:54.513Z,58.00
2018-03-18T20:24:22.757Z,58.30
2018-03-18T20:26:50.241Z,58.30
2018-03-18T20:29:18.482Z,59.10
2018-03-18T20:31:45.954Z,59.10
2018-03-18T20:34:13.462Z,59.40
2018-03-18T20:36:40.948Z,59.50
2018-03-18T20:39:08.445Z,59.60
2018-03-18T20:41:35.917Z,59.80
2018-03-18T20:44:04.177Z,60.70
2018-03-18T20:46:31.678Z,60.70
2018-03-18T20:49:04.913Z,61.10
2018-03-18T20:51:33.373Z,61.10
2018-03-18T20:54:11.511Z,61.40
2018-03-18T20:56:50.050Z,61.50
2018-03-18T20:59:20.237Z,61.60
2018-03-18T21:01:54.936Z,61.60
2018-03-18T21:07:29.877Z,63.50
2018-03-18T21:09:57.400Z,62.50
2018-03-18T21:12:25.222Z,62.40
2018-03-18T21:14:52.942Z,62.70
2018-03-18T21:17:35.932Z,63.50
2018-03-18T21:20:03.483Z,63.60
2018-03-18T21:22:32.519Z,63.50
2018-03-18T21:25:02.123Z,63.70
2018-03-18T21:27:31.458Z,64.00
2018-03-18T21:33:15.487Z,64.40
2018-03-18T21:35:45.645Z,65.30
2018-03-18T21:38:13.125Z,65.30
2018-03-18T21:40:40.657Z,65.80
2018-03-18T21:43:08.297Z,65.90
2018-03-18T21:45:35.854Z,65.90
2018-03-18T21:48:03.458Z,66.10
2018-03-18T21:50:30.954Z,66.20
2018-03-18T21:52:58.461Z,66.20
2018-03-18T21:55:26.044Z,66.40
2018-03-18T21:57:53.782Z,66.90
2018-03-18T22:00:21.267Z,67.40
2018-03-18T22:02:48.840Z,67.80
2018-03-18T22:05:16.364Z,67.90
2018-03-18T22:07:43.905Z,68.20
2018-03-18T22:10:12.322Z,68.70
2018-03-18T22:12:39.812Z,67.90
2018-03-18T22:15:07.369Z,68.10
2018-03-18T22:17:34.951Z,68.10
2018-03-18T22:20:02.425Z,68.50
2018-03-18T22:22:30.705Z,68.50
2018-03-18T22:24:58.526Z,68.50
2018-03-18T22:27:32.086Z,68.70
2018-03-18T22:29:59.563Z,68.50
2018-03-18T22:32:27.041Z,68.80
2018-03-18T22:34:55.202Z,68.80
2018-03-18T22:37:25.627Z,69.00
2018-03-18T22:39:54.546Z,69.50
2018-03-18T22:42:23.817Z,69.60
2018-03-18T22:44:51.837Z,69.60
2018-03-18T22:47:19.288Z,70.00
2018-03-18T22:49:52.014Z,70.00
2018-03-18T22:52:19.842Z,69.80
2018-03-18T22:54:48.340Z,70.70
2018-03-18T22:57:16.340Z,70.70
2018-03-18T23:02:42.490Z,70.80
2018-03-18T23:05:10.470Z,70.80
2018-03-18T23:07:37.939Z,71.40
2018-03-18T23:10:05.422Z,71.70
2018-03-18T23:12:33.267Z,71.70
2018-03-18T23:15:01.330Z,72.00
2018-03-18T23:17:29.286Z,72.30
2018-03-18T23:19:57.257Z,72.50
2018-03-18T23:22:24.733Z,72.60
2018-03-18T23:24:52.220Z,72.40
2018-03-18T23:27:20.505Z,72.80
2018-03-18T23:29:48.734Z,73.00
2018-03-18T23:32:16.256Z,73.00
2018-03-18T23:34:43.731Z,73.10
2018-03-18T23:37:14.249Z,73.60
2018-03-18T23:39:42.447Z,73.80
2018-03-18T23:42:10.194Z,73.80
2018-03-18T23:44:38.068Z,73.70
2018-03-18T23:47:05.537Z,73.50
2018-03-18T23:49:33.024Z,73.70
2018-03-18T23:52:04.190Z,73.70
2018-03-18T23:54:32.922Z,75.40
2018-03-18T23:59:59.588Z,74.70
